sensor_id;sensor_type;location;lat;lon;timestamp;pressure;altitude;pressure_sealevel;temperature;humidity
73952;BME280;62304;47.662;18.324;2022-12-19T00:00:04;102562.56;;;-5.85;85.78
73952;BME280;62304;47.662;18.324;2022-12-19T00:03:13;102562.53;;;-5.78;85.93
73952;BME280;62304;47.662;18.324;2022-12-19T00:06:17;102576.91;;;-5.84;85.99
73952;BME280;62304;47.662;18.324;2022-12-19T00:09:21;102566.47;;;-5.68;84.92
73952;BME280;62304;47.662;18.324;2022-12-19T00:12:43;102571.94;;;-5.81;84.12
73952;BME280;62304;47.662;18.324;2022-12-19T00:15:45;102575.22;;;-5.66;84.28
73952;BME280;62304;47.662;18.324;2022-12-19T00:18:49;102570.41;;;-5.64;84.93
73952;BME280;62304;47.662;18.324;2022-12-19T00:21:56;102562.47;;;-5.39;83.62
73952;BME280;62304;47.662;18.324;2022-12-19T00:24:59;102571.84;;;-5.42;82.60
73952;BME280;62304;47.662;18.324;2022-12-19T00:28:02;102559.97;;;-5.28;82.54
73952;BME280;62304;47.662;18.324;2022-12-19T00:31:06;102562.22;;;-5.18;82.40
73952;BME280;62304;47.662;18.324;2022-12-19T00:34:08;102559.75;;;-5.33;83.19
73952;BME280;62304;47.662;18.324;2022-12-19T00:37:13;102559.50;;;-5.25;82.45
73952;BME280;62304;47.662;18.324;2022-12-19T00:40:16;102547.69;;;-5.30;82.96
73952;BME280;62304;47.662;18.324;2022-12-19T00:43:19;102554.16;;;-5.51;82.97
73952;BME280;62304;47.662;18.324;2022-12-19T00:46:22;102550.47;;;-5.76;83.70
73952;BME280;62304;47.662;18.324;2022-12-19T00:49:25;102563.53;;;-5.53;83.59
73952;BME280;62304;47.662;18.324;2022-12-19T00:52:28;102552.75;;;-5.60;84.47
73952;BME280;62304;47.662;18.324;2022-12-19T00:55:37;102549.59;;;-5.50;84.78
73952;BME280;62304;47.662;18.324;2022-12-19T00:58:40;102546.91;;;-5.50;84.62
73952;BME280;62304;47.662;18.324;2022-12-19T01:01:48;102545.44;;;-5.59;84.02
73952;BME280;62304;47.662;18.324;2022-12-19T01:04:51;102542.19;;;-5.74;84.52
73952;BME280;62304;47.662;18.324;2022-12-19T01:07:54;102527.56;;;-5.47;85.50
73952;BME280;62304;47.662;18.324;2022-12-19T01:10:57;102530.00;;;-5.33;85.68
73952;BME280;62304;47.662;18.324;2022-12-19T01:14:00;102529.97;;;-5.26;86.59
73952;BME280;62304;47.662;18.324;2022-12-19T01:17:03;102531.13;;;-5.03;87.78
73952;BME280;62304;47.662;18.324;2022-12-19T01:20:07;102531.06;;;-4.52;88.47
73952;BME280;62304;47.662;18.324;2022-12-19T01:23:10;102534.56;;;-4.14;89.67
73952;BME280;62304;47.662;18.324;2022-12-19T01:26:13;102529.94;;;-3.89;89.76
73952;BME280;62304;47.662;18.324;2022-12-19T01:29:15;102522.00;;;-3.66;90.22
73952;BME280;62304;47.662;18.324;2022-12-19T01:32:20;102522.03;;;-3.48;89.92
73952;BME280;62304;47.662;18.324;2022-12-19T01:35:23;102522.34;;;-3.20;90.14
73952;BME280;62304;47.662;18.324;2022-12-19T01:38:26;102520.81;;;-2.98;88.37
73952;BME280;62304;47.662;18.324;2022-12-19T01:41:29;102535.78;;;-2.78;89.75
73952;BME280;62304;47.662;18.324;2022-12-19T01:44:32;102534.78;;;-2.65;89.25
73952;BME280;62304;47.662;18.324;2022-12-19T01:51:17;102548.66;;;-2.44;89.59
73952;BME280;62304;47.662;18.324;2022-12-19T01:54:24;102544.34;;;-2.33;89.64
73952;BME280;62304;47.662;18.324;2022-12-19T01:57:29;102539.97;;;-2.34;89.59
73952;BME280;62304;47.662;18.324;2022-12-19T02:00:34;102537.34;;;-2.41;89.41
73952;BME280;62304;47.662;18.324;2022-12-19T02:03:37;102539.66;;;-2.26;89.69
73952;BME280;62304;47.662;18.324;2022-12-19T02:06:44;102520.75;;;-2.21;89.80
73952;BME280;62304;47.662;18.324;2022-12-19T02:09:51;102520.63;;;-2.15;89.87
73952;BME280;62304;47.662;18.324;2022-12-19T02:12:59;102522.19;;;-2.07;90.20
73952;BME280;62304;47.662;18.324;2022-12-19T02:36:52;102523.47;;;-2.21;89.90
73952;BME280;62304;47.662;18.324;2022-12-19T02:40:10;102523.91;;;-2.24;90.70
73952;BME280;62304;47.662;18.324;2022-12-19T02:43:17;102535.84;;;-2.25;90.33
73952;BME280;62304;47.662;18.324;2022-12-19T02:46:21;102522.63;;;-2.33;91.12
73952;BME280;62304;47.662;18.324;2022-12-19T02:49:28;102509.13;;;-2.40;90.92
73952;BME280;62304;47.662;18.324;2022-12-19T02:55:43;102526.06;;;-2.26;91.28
73952;BME280;62304;47.662;18.324;2022-12-19T02:59:22;102533.50;;;-2.33;90.67
73952;BME280;62304;47.662;18.324;2022-12-19T03:09:11;102501.59;;;-2.26;91.94
73952;BME280;62304;47.662;18.324;2022-12-19T03:12:29;102490.25;;;-2.23;92.13
73952;BME280;62304;47.662;18.324;2022-12-19T03:15:33;102484.34;;;-2.20;91.09
73952;BME280;62304;47.662;18.324;2022-12-19T03:18:38;102481.16;;;-2.17;90.75
73952;BME280;62304;47.662;18.324;2022-12-19T03:21:46;102480.13;;;-2.16;91.04
73952;BME280;62304;47.662;18.324;2022-12-19T03:24:51;102484.25;;;-2.14;91.23
73952;BME280;62304;47.662;18.324;2022-12-19T03:27:54;102482.69;;;-2.10;91.23
73952;BME280;62304;47.662;18.324;2022-12-19T03:31:00;102484.97;;;-2.07;90.80
73952;BME280;62304;47.662;18.324;2022-12-19T03:34:16;102484.13;;;-2.07;91.49
73952;BME280;62304;47.662;18.324;2022-12-19T03:37:23;102496.31;;;-1.98;91.09
73952;BME280;62304;47.662;18.324;2022-12-19T03:40:28;102485.22;;;-1.97;91.45
73952;BME280;62304;47.662;18.324;2022-12-19T03:43:33;102480.59;;;-1.96;91.54
73952;BME280;62304;47.662;18.324;2022-12-19T03:46:42;102482.13;;;-1.89;91.50
73952;BME280;62304;47.662;18.324;2022-12-19T03:49:48;102488.41;;;-1.88;91.97
73952;BME280;62304;47.662;18.324;2022-12-19T03:57:06;102494.91;;;-1.78;91.47
73952;BME280;62304;47.662;18.324;2022-12-19T04:00:13;102488.66;;;-1.78;91.62
73952;BME280;62304;47.662;18.324;2022-12-19T04:03:18;102494.31;;;-1.80;91.68
73952;BME280;62304;47.662;18.324;2022-12-19T04:06:22;102494.91;;;-1.78;91.90
73952;BME280;62304;47.662;18.324;2022-12-19T04:09:25;102492.88;;;-1.71;91.53
73952;BME280;62304;47.662;18.324;2022-12-19T04:12:33;102480.97;;;-1.70;91.79
73952;BME280;62304;47.662;18.324;2022-12-19T04:18:48;102512.28;;;-1.67;91.74
73952;BME280;62304;47.662;18.324;2022-12-19T04:22:03;102517.47;;;-1.66;91.71
73952;BME280;62304;47.662;18.324;2022-12-19T04:25:13;102507.66;;;-1.67;91.97
73952;BME280;62304;47.662;18.324;2022-12-19T04:31:23;102483.31;;;-1.62;91.69
73952;BME280;62304;47.662;18.324;2022-12-19T04:34:26;102493.12;;;-1.61;91.87
73952;BME280;62304;47.662;18.324;2022-12-19T04:37:30;102493.47;;;-1.57;91.54
73952;BME280;62304;47.662;18.324;2022-12-19T04:40:34;102507.78;;;-1.62;91.92
73952;BME280;62304;47.662;18.324;2022-12-19T04:43:42;102495.84;;;-1.61;92.06
73952;BME280;62304;47.662;18.324;2022-12-19T04:46:45;102512.75;;;-1.59;92.00
73952;BME280;62304;47.662;18.324;2022-12-19T04:49:48;102512.66;;;-1.64;92.22
73952;BME280;62304;47.662;18.324;2022-12-19T04:52:51;102512.88;;;-1.65;92.38
73952;BME280;62304;47.662;18.324;2022-12-19T04:56:03;102510.16;;;-1.65;92.40
73952;BME280;62304;47.662;18.324;2022-12-19T04:59:07;102487.91;;;-1.62;92.33
73952;BME280;62304;47.662;18.324;2022-12-19T05:02:10;102493.50;;;-1.69;92.45
73952;BME280;62304;47.662;18.324;2022-12-19T05:05:13;102499.72;;;-1.68;92.65
73952;BME280;62304;47.662;18.324;2022-12-19T05:08:15;102491.22;;;-1.72;92.56
73952;BME280;62304;47.662;18.324;2022-12-19T05:11:19;102495.13;;;-1.68;92.73
73952;BME280;62304;47.662;18.324;2022-12-19T05:14:21;102480.81;;;-1.63;93.03
73952;BME280;62304;47.662;18.324;2022-12-19T05:17:24;102482.47;;;-1.62;92.71
73952;BME280;62304;47.662;18.324;2022-12-19T05:20:27;102466.97;;;-1.62;92.70
73952;BME280;62304;47.662;18.324;2022-12-19T05:23:30;102476.56;;;-1.59;92.77
73952;BME280;62304;47.662;18.324;2022-12-19T05:26:33;102468.75;;;-1.56;92.70
73952;BME280;62304;47.662;18.324;2022-12-19T05:29:36;102464.37;;;-1.57;92.65
73952;BME280;62304;47.662;18.324;2022-12-19T05:32:39;102468.97;;;-1.57;92.74
73952;BME280;62304;47.662;18.324;2022-12-19T05:35:42;102480.47;;;-1.55;92.50
73952;BME280;62304;47.662;18.324;2022-12-19T05:38:45;102487.06;;;-1.51;92.34
73952;BME280;62304;47.662;18.324;2022-12-19T05:41:48;102485.53;;;-1.47;92.06
73952;BME280;62304;47.662;18.324;2022-12-19T05:44:51;102476.91;;;-1.44;91.81
73952;BME280;62304;47.662;18.324;2022-12-19T05:47:54;102484.09;;;-1.50;91.80
73952;BME280;62304;47.662;18.324;2022-12-19T05:51:02;102487.31;;;-1.53;92.02
73952;BME280;62304;47.662;18.324;2022-12-19T05:54:06;102496.66;;;-1.49;91.84
73952;BME280;62304;47.662;18.324;2022-12-19T05:57:08;102499.75;;;-1.45;91.66
73952;BME280;62304;47.662;18.324;2022-12-19T06:00:12;102495.09;;;-1.45;91.36
73952;BME280;62304;47.662;18.324;2022-12-19T06:03:15;102495.00;;;-1.38;91.30
73952;BME280;62304;47.662;18.324;2022-12-19T06:06:22;102492.50;;;-1.40;91.00
73952;BME280;62304;47.662;18.324;2022-12-19T06:09:25;102498.44;;;-1.43;90.99
73952;BME280;62304;47.662;18.324;2022-12-19T06:12:28;102493.12;;;-1.49;91.18
73952;BME280;62304;47.662;18.324;2022-12-19T06:15:31;102505.06;;;-1.50;91.19
73952;BME280;62304;47.662;18.324;2022-12-19T06:18:33;102494.75;;;-1.60;91.53
73952;BME280;62304;47.662;18.324;2022-12-19T06:21:40;102491.22;;;-1.60;91.61
73952;BME280;62304;47.662;18.324;2022-12-19T06:24:49;102489.59;;;-1.61;91.79
73952;BME280;62304;47.662;18.324;2022-12-19T06:27:52;102486.88;;;-1.61;91.66
73952;BME280;62304;47.662;18.324;2022-12-19T06:31:00;102490.87;;;-1.64;91.84
73952;BME280;62304;47.662;18.324;2022-12-19T06:34:03;102500.94;;;-1.64;91.88
73952;BME280;62304;47.662;18.324;2022-12-19T06:37:06;102503.88;;;-1.66;91.95
73952;BME280;62304;47.662;18.324;2022-12-19T06:40:10;102488.03;;;-1.69;92.05
73952;BME280;62304;47.662;18.324;2022-12-19T06:43:30;102501.41;;;-1.67;92.13
73952;BME280;62304;47.662;18.324;2022-12-19T06:46:33;102483.69;;;-1.70;92.08
73952;BME280;62304;47.662;18.324;2022-12-19T06:49:36;102492.66;;;-1.69;92.12
73952;BME280;62304;47.662;18.324;2022-12-19T06:52:39;102483.91;;;-1.71;92.30
73952;BME280;62304;47.662;18.324;2022-12-19T06:55:42;102492.88;;;-1.71;92.16
73952;BME280;62304;47.662;18.324;2022-12-19T06:58:45;102477.41;;;-1.70;92.20
73952;BME280;62304;47.662;18.324;2022-12-19T07:05:05;102493.00;;;-1.66;92.03
73952;BME280;62304;47.662;18.324;2022-12-19T07:08:09;102490.87;;;-1.64;91.93
73952;BME280;62304;47.662;18.324;2022-12-19T07:11:12;102496.91;;;-1.62;91.73
73952;BME280;62304;47.662;18.324;2022-12-19T07:14:15;102516.06;;;-1.57;91.64
73952;BME280;62304;47.662;18.324;2022-12-19T07:17:18;102500.09;;;-1.53;91.66
73952;BME280;62304;47.662;18.324;2022-12-19T07:20:21;102510.50;;;-1.50;91.44
73952;BME280;62304;47.662;18.324;2022-12-19T07:23:24;102501.63;;;-1.46;91.42
73952;BME280;62304;47.662;18.324;2022-12-19T07:26:27;102508.72;;;-1.45;91.30
73952;BME280;62304;47.662;18.324;2022-12-19T07:29:30;102516.66;;;-1.43;91.27
73952;BME280;62304;47.662;18.324;2022-12-19T07:32:33;102513.81;;;-1.37;91.06
73952;BME280;62304;47.662;18.324;2022-12-19T07:35:36;102521.72;;;-1.35;90.96
73952;BME280;62304;47.662;18.324;2022-12-19T07:38:39;102528.09;;;-1.30;90.97
73952;BME280;62304;47.662;18.324;2022-12-19T07:41:42;102520.06;;;-1.25;90.74
73952;BME280;62304;47.662;18.324;2022-12-19T07:44:44;102527.03;;;-1.17;90.50
73952;BME280;62304;47.662;18.324;2022-12-19T07:47:47;102531.41;;;-1.16;90.38
73952;BME280;62304;47.662;18.324;2022-12-19T07:50:50;102528.69;;;-1.16;90.18
73952;BME280;62304;47.662;18.324;2022-12-19T07:53:53;102537.19;;;-1.13;89.96
73952;BME280;62304;47.662;18.324;2022-12-19T07:56:56;102535.88;;;-1.10;89.81
73952;BME280;62304;47.662;18.324;2022-12-19T07:59:59;102539.63;;;-1.00;89.71
73952;BME280;62304;47.662;18.324;2022-12-19T08:03:02;102538.81;;;-1.00;89.59
73952;BME280;62304;47.662;18.324;2022-12-19T08:06:06;102545.06;;;-1.00;89.70
73952;BME280;62304;47.662;18.324;2022-12-19T08:09:09;102545.81;;;-1.04;89.96
73952;BME280;62304;47.662;18.324;2022-12-19T08:12:12;102547.47;;;-1.03;90.08
73952;BME280;62304;47.662;18.324;2022-12-19T08:15:15;102540.59;;;-1.06;90.31
73952;BME280;62304;47.662;18.324;2022-12-19T08:18:18;102546.66;;;-1.04;90.21
73952;BME280;62304;47.662;18.324;2022-12-19T08:21:21;102544.16;;;-1.05;90.18
73952;BME280;62304;47.662;18.324;2022-12-19T08:24:26;102532.78;;;-1.02;90.03
73952;BME280;62304;47.662;18.324;2022-12-19T08:27:29;102532.66;;;-0.96;90.04
73952;BME280;62304;47.662;18.324;2022-12-19T08:30:32;102530.03;;;-0.91;89.82
73952;BME280;62304;47.662;18.324;2022-12-19T08:33:35;102511.81;;;-0.90;89.76
73952;BME280;62304;47.662;18.324;2022-12-19T08:36:38;102520.56;;;-0.88;89.71
73952;BME280;62304;47.662;18.324;2022-12-19T08:39:41;102524.34;;;-0.89;89.84
73952;BME280;62304;47.662;18.324;2022-12-19T08:42:44;102543.00;;;-0.81;89.50
73952;BME280;62304;47.662;18.324;2022-12-19T08:45:48;102550.00;;;-0.85;89.64
73952;BME280;62304;47.662;18.324;2022-12-19T08:48:52;102561.50;;;-0.83;89.46
73952;BME280;62304;47.662;18.324;2022-12-19T08:51:54;102565.53;;;-0.86;89.39
73952;BME280;62304;47.662;18.324;2022-12-19T08:54:57;102557.38;;;-0.86;89.29
73952;BME280;62304;47.662;18.324;2022-12-19T08:58:00;102550.41;;;-0.93;88.95
73952;BME280;62304;47.662;18.324;2022-12-19T09:01:06;102559.75;;;-0.89;88.94
73952;BME280;62304;47.662;18.324;2022-12-19T09:04:11;102546.25;;;-0.84;88.87
73952;BME280;62304;47.662;18.324;2022-12-19T09:07:29;102528.84;;;-0.95;88.99
73952;BME280;62304;47.662;18.324;2022-12-19T09:10:35;102546.13;;;-0.89;88.95
73952;BME280;62304;47.662;18.324;2022-12-19T09:13:40;102550.84;;;-0.85;88.68
73952;BME280;62304;47.662;18.324;2022-12-19T09:16:43;102541.69;;;-0.67;88.22
73952;BME280;62304;47.662;18.324;2022-12-19T09:19:46;102547.69;;;-0.65;87.54
73952;BME280;62304;47.662;18.324;2022-12-19T09:22:49;102528.00;;;-0.56;87.16
73952;BME280;62304;47.662;18.324;2022-12-19T09:25:54;102530.69;;;-0.44;86.79
73952;BME280;62304;47.662;18.324;2022-12-19T09:28:56;102500.50;;;-0.54;85.90
73952;BME280;62304;47.662;18.324;2022-12-19T09:32:01;102514.03;;;-0.59;85.96
73952;BME280;62304;47.662;18.324;2022-12-19T09:35:04;102519.38;;;-0.64;85.69
73952;BME280;62304;47.662;18.324;2022-12-19T09:38:08;102523.75;;;-0.63;85.73
73952;BME280;62304;47.662;18.324;2022-12-19T09:47:55;102515.94;;;-0.60;86.21
73952;BME280;62304;47.662;18.324;2022-12-19T09:51:20;102512.63;;;-0.62;86.29
73952;BME280;62304;47.662;18.324;2022-12-19T09:54:37;102505.94;;;-0.54;86.14
73952;BME280;62304;47.662;18.324;2022-12-19T09:57:54;102502.16;;;-0.53;86.12
73952;BME280;62304;47.662;18.324;2022-12-19T10:01:04;102511.16;;;-0.53;86.08
73952;BME280;62304;47.662;18.324;2022-12-19T10:04:13;102519.09;;;-0.51;86.12
73952;BME280;62304;47.662;18.324;2022-12-19T10:07:20;102512.94;;;-0.58;86.10
73952;BME280;62304;47.662;18.324;2022-12-19T10:14:39;102503.84;;;0.30;82.89
73952;BME280;62304;47.662;18.324;2022-12-19T10:21:06;102502.19;;;-0.21;84.01
73952;BME280;62304;47.662;18.324;2022-12-19T10:31:17;102472.78;;;-0.02;83.54
73952;BME280;62304;47.662;18.324;2022-12-19T10:34:32;102468.97;;;0.15;82.89
73952;BME280;62304;47.662;18.324;2022-12-19T10:38:05;102473.03;;;0.13;82.15
73952;BME280;62304;47.662;18.324;2022-12-19T10:41:43;102467.53;;;0.46;81.37
73952;BME280;62304;47.662;18.324;2022-12-19T10:44:33;102461.22;;;0.45;80.51
73952;BME280;62304;47.662;18.324;2022-12-19T10:47:39;102451.28;;;0.56;78.49
73952;BME280;62304;47.662;18.324;2022-12-19T10:50:43;102454.88;;;1.04;78.84
73952;BME280;62304;47.662;18.324;2022-12-19T10:53:52;102458.03;;;1.71;76.75
73952;BME280;62304;47.662;18.324;2022-12-19T10:57:26;102461.19;;;1.31;74.27
73952;BME280;62304;47.662;18.324;2022-12-19T11:00:28;102450.47;;;1.51;74.73
73952;BME280;62304;47.662;18.324;2022-12-19T11:03:35;102449.97;;;1.91;73.60
73952;BME280;62304;47.662;18.324;2022-12-19T11:06:52;102450.81;;;1.91;73.20
73952;BME280;62304;47.662;18.324;2022-12-19T11:10:00;102452.78;;;1.64;74.19
73952;BME280;62304;47.662;18.324;2022-12-19T11:13:20;102448.13;;;1.96;71.95
73952;BME280;62304;47.662;18.324;2022-12-19T11:16:35;102425.97;;;2.44;69.65
73952;BME280;62304;47.662;18.324;2022-12-19T11:19:48;102441.09;;;2.10;71.00
73952;BME280;62304;47.662;18.324;2022-12-19T11:23:03;102430.37;;;2.45;69.17
73952;BME280;62304;47.662;18.324;2022-12-19T11:29:50;102414.91;;;2.86;67.42
73952;BME280;62304;47.662;18.324;2022-12-19T11:33:16;102410.75;;;2.63;68.22
73952;BME280;62304;47.662;18.324;2022-12-19T11:39:59;102413.53;;;1.80;69.76
73952;BME280;62304;47.662;18.324;2022-12-19T11:43:26;102407.62;;;1.98;69.53
73952;BME280;62304;47.662;18.324;2022-12-19T11:46:46;102402.00;;;2.15;69.49
73952;BME280;62304;47.662;18.324;2022-12-19T11:49:57;102403.97;;;2.86;67.80
73952;BME280;62304;47.662;18.324;2022-12-19T11:53:28;102404.25;;;2.94;67.20
73952;BME280;62304;47.662;18.324;2022-12-19T11:56:33;102400.19;;;2.35;67.99
73952;BME280;62304;47.662;18.324;2022-12-19T11:59:37;102399.78;;;2.63;68.54
73952;BME280;62304;47.662;18.324;2022-12-19T12:06:14;102379.19;;;2.51;67.09
73952;BME280;62304;47.662;18.324;2022-12-19T12:23:34;102379.81;;;1.75;70.50
73952;BME280;62304;47.662;18.324;2022-12-19T12:27:04;102392.56;;;1.59;71.13
73952;BME280;62304;47.662;18.324;2022-12-19T12:48:51;102356.88;;;2.27;68.58
73952;BME280;62304;47.662;18.324;2022-12-19T12:51:56;102349.34;;;1.61;70.48
73952;BME280;62304;47.662;18.324;2022-12-19T12:55:03;102345.13;;;1.44;71.43
73952;BME280;62304;47.662;18.324;2022-12-19T13:01:59;102337.25;;;1.21;72.53
73952;BME280;62304;47.662;18.324;2022-12-19T13:08:47;102338.59;;;0.87;73.39
73952;BME280;62304;47.662;18.324;2022-12-19T13:15:44;102333.47;;;0.69;73.84
73952;BME280;62304;47.662;18.324;2022-12-19T13:28:38;102337.06;;;0.48;74.90
73952;BME280;62304;47.662;18.324;2022-12-19T13:32:11;102340.62;;;0.48;75.31
73952;BME280;62304;47.662;18.324;2022-12-19T13:38:30;102344.44;;;0.47;76.30
73952;BME280;62304;47.662;18.324;2022-12-19T13:41:45;102328.06;;;0.47;75.57
73952;BME280;62304;47.662;18.324;2022-12-19T13:45:14;102327.22;;;0.47;75.63
73952;BME280;62304;47.662;18.324;2022-12-19T13:48:32;102337.97;;;0.53;76.17
73952;BME280;62304;47.662;18.324;2022-12-19T13:51:56;102336.34;;;0.57;75.95
73952;BME280;62304;47.662;18.324;2022-12-19T13:54:59;102322.69;;;0.57;75.90
73952;BME280;62304;47.662;18.324;2022-12-19T13:58:03;102316.38;;;0.52;76.00
73952;BME280;62304;47.662;18.324;2022-12-19T14:01:16;102313.25;;;0.43;76.33
73952;BME280;62304;47.662;18.324;2022-12-19T14:04:28;102316.78;;;0.39;76.52
73952;BME280;62304;47.662;18.324;2022-12-19T14:07:40;102315.00;;;0.28;77.28
73952;BME280;62304;47.662;18.324;2022-12-19T14:10:45;102317.59;;;0.18;77.28
73952;BME280;62304;47.662;18.324;2022-12-19T14:14:15;102305.34;;;0.20;77.48
73952;BME280;62304;47.662;18.324;2022-12-19T14:17:39;102303.19;;;0.22;76.90
73952;BME280;62304;47.662;18.324;2022-12-19T14:20:42;102290.25;;;0.13;77.44
73952;BME280;62304;47.662;18.324;2022-12-19T14:24:28;102289.88;;;0.04;78.00
73952;BME280;62304;47.662;18.324;2022-12-19T14:27:53;102285.94;;;-0.05;78.62
73952;BME280;62304;47.662;18.324;2022-12-19T14:31:13;102285.84;;;-0.10;78.82
73952;BME280;62304;47.662;18.324;2022-12-19T14:34:20;102285.28;;;-0.12;79.11
73952;BME280;62304;47.662;18.324;2022-12-19T14:37:45;102285.78;;;-0.15;79.25
73952;BME280;62304;47.662;18.324;2022-12-19T14:41:18;102291.44;;;-0.21;79.66
73952;BME280;62304;47.662;18.324;2022-12-19T14:44:53;102292.19;;;-0.26;79.57
73952;BME280;62304;47.662;18.324;2022-12-19T14:48:35;102294.59;;;-0.29;79.72
73952;BME280;62304;47.662;18.324;2022-12-19T14:51:50;102294.19;;;-0.37;79.83
73952;BME280;62304;47.662;18.324;2022-12-19T14:58:32;102305.13;;;-0.54;80.18
73952;BME280;62304;47.662;18.324;2022-12-19T15:01:54;102305.28;;;-0.60;80.84
73952;BME280;62304;47.662;18.324;2022-12-19T15:05:11;102306.84;;;-0.64;81.04
73952;BME280;62304;47.662;18.324;2022-12-19T15:08:33;102304.03;;;-0.69;81.74
73952;BME280;62304;47.662;18.324;2022-12-19T15:11:55;102310.00;;;-0.72;81.92
73952;BME280;62304;47.662;18.324;2022-12-19T15:15:56;102290.63;;;-0.76;81.91
73952;BME280;62304;47.662;18.324;2022-12-19T15:19:12;102284.59;;;-0.02;79.70
73952;BME280;62304;47.662;18.324;2022-12-19T15:22:16;102284.59;;;-0.02;79.70
73952;BME280;62304;47.662;18.324;2022-12-19T15:25:19;102295.31;;;-0.71;81.58
73952;BME280;62304;47.662;18.324;2022-12-19T15:28:42;102307.44;;;-0.62;81.76
73952;BME280;62304;47.662;18.324;2022-12-19T15:31:45;102300.28;;;-0.68;81.25
73952;BME280;62304;47.662;18.324;2022-12-19T15:34:48;102295.56;;;-0.73;80.90
73952;BME280;62304;47.662;18.324;2022-12-19T15:37:53;102295.63;;;-0.68;81.43
73952;BME280;62304;47.662;18.324;2022-12-19T15:44:31;102281.19;;;-0.68;81.67
73952;BME280;62304;47.662;18.324;2022-12-19T15:47:35;102270.63;;;-0.65;81.32
73952;BME280;62304;47.662;18.324;2022-12-19T15:50:38;102277.22;;;-0.61;81.25
73952;BME280;62304;47.662;18.324;2022-12-19T15:53:42;102271.50;;;-0.59;81.57
73952;BME280;62304;47.662;18.324;2022-12-19T15:56:48;102272.12;;;-0.57;80.99
73952;BME280;62304;47.662;18.324;2022-12-19T15:59:53;102256.87;;;-0.53;81.25
73952;BME280;62304;47.662;18.324;2022-12-19T16:02:57;102251.28;;;-0.63;81.73
73952;BME280;62304;47.662;18.324;2022-12-19T16:06:21;102242.69;;;-0.55;81.09
73952;BME280;62304;47.662;18.324;2022-12-19T16:09:26;102241.13;;;-0.51;81.27
73952;BME280;62304;47.662;18.324;2022-12-19T16:12:33;102237.88;;;-0.48;81.47
73952;BME280;62304;47.662;18.324;2022-12-19T16:15:38;102233.03;;;-0.46;81.22
73952;BME280;62304;47.662;18.324;2022-12-19T16:18:45;102249.38;;;-0.46;81.37
73952;BME280;62304;47.662;18.324;2022-12-19T16:21:48;102257.81;;;-0.48;81.85
73952;BME280;62304;47.662;18.324;2022-12-19T16:24:52;102235.47;;;-0.45;81.74
73952;BME280;62304;47.662;18.324;2022-12-19T16:27:57;102224.56;;;-0.45;81.34
73952;BME280;62304;47.662;18.324;2022-12-19T16:31:13;102244.50;;;-0.44;81.74
73952;BME280;62304;47.662;18.324;2022-12-19T16:34:20;102237.66;;;-0.47;82.11
73952;BME280;62304;47.662;18.324;2022-12-19T16:37:24;102240.75;;;-0.38;82.10
73952;BME280;62304;47.662;18.324;2022-12-19T16:40:33;102245.12;;;-0.37;81.85
73952;BME280;62304;47.662;18.324;2022-12-19T16:43:39;102247.94;;;-0.32;81.57
73952;BME280;62304;47.662;18.324;2022-12-19T16:46:43;102237.94;;;-0.27;81.73
73952;BME280;62304;47.662;18.324;2022-12-19T16:49:52;102245.28;;;-0.28;81.36
73952;BME280;62304;47.662;18.324;2022-12-19T16:52:55;102247.16;;;-0.28;81.42
73952;BME280;62304;47.662;18.324;2022-12-19T16:55:59;102251.72;;;-0.33;81.84
73952;BME280;62304;47.662;18.324;2022-12-19T16:59:06;102258.66;;;-0.26;81.50
73952;BME280;62304;47.662;18.324;2022-12-19T17:02:36;102254.47;;;-0.33;81.89
73952;BME280;62304;47.662;18.324;2022-12-19T17:05:41;102252.50;;;-0.38;82.05
73952;BME280;62304;47.662;18.324;2022-12-19T17:08:45;102261.81;;;-0.34;82.11
73952;BME280;62304;47.662;18.324;2022-12-19T17:11:51;102269.25;;;-0.29;81.96
73952;BME280;62304;47.662;18.324;2022-12-19T17:14:55;102283.94;;;-0.31;82.09
73952;BME280;62304;47.662;18.324;2022-12-19T17:18:15;102285.59;;;-0.29;82.12
73952;BME280;62304;47.662;18.324;2022-12-19T17:21:21;102293.00;;;-0.25;82.09
73952;BME280;62304;47.662;18.324;2022-12-19T17:24:24;102290.47;;;-0.32;82.35
73952;BME280;62304;47.662;18.324;2022-12-19T17:27:27;102292.44;;;-0.27;81.87
73952;BME280;62304;47.662;18.324;2022-12-19T17:30:30;102293.00;;;-0.25;82.20
73952;BME280;62304;47.662;18.324;2022-12-19T17:33:38;102299.88;;;-0.22;82.08
73952;BME280;62304;47.662;18.324;2022-12-19T17:36:42;102304.47;;;-0.23;81.93
73952;BME280;62304;47.662;18.324;2022-12-19T17:39:45;102301.97;;;-0.29;82.38
73952;BME280;62304;47.662;18.324;2022-12-19T17:42:48;102299.34;;;-0.20;82.00
73952;BME280;62304;47.662;18.324;2022-12-19T17:45:51;102295.44;;;-0.28;82.43
73952;BME280;62304;47.662;18.324;2022-12-19T17:48:54;102289.84;;;-0.17;82.14
73952;BME280;62304;47.662;18.324;2022-12-19T17:51:58;102292.56;;;-0.17;82.37
73952;BME280;62304;47.662;18.324;2022-12-19T17:55:25;102285.72;;;-0.20;82.10
73952;BME280;62304;47.662;18.324;2022-12-19T17:58:29;102269.94;;;-0.17;82.35
73952;BME280;62304;47.662;18.324;2022-12-19T18:01:33;102270.19;;;-0.19;82.29
73952;BME280;62304;47.662;18.324;2022-12-19T18:04:37;102263.47;;;-0.12;82.07
73952;BME280;62304;47.662;18.324;2022-12-19T18:07:39;102263.47;;;-0.12;82.41
73952;BME280;62304;47.662;18.324;2022-12-19T18:10:44;102266.22;;;-0.12;82.35
73952;BME280;62304;47.662;18.324;2022-12-19T18:13:48;102267.91;;;-0.06;82.12
73952;BME280;62304;47.662;18.324;2022-12-19T18:16:52;102257.19;;;-0.12;82.30
73952;BME280;62304;47.662;18.324;2022-12-19T18:19:55;102254.78;;;-0.09;82.39
73952;BME280;62304;47.662;18.324;2022-12-19T18:22:58;102236.22;;;-0.12;82.32
73952;BME280;62304;47.662;18.324;2022-12-19T18:26:02;102240.03;;;-0.13;82.53
73952;BME280;62304;47.662;18.324;2022-12-19T18:29:05;102238.94;;;-0.12;83.10
73952;BME280;62304;47.662;18.324;2022-12-19T18:32:15;102231.59;;;-0.11;82.97